Terminal Aerodrome Forecast
Issued by NWS

Home | Current Version | Previous Version | Text Only | Print | Product List | Glossary On
Versions: 1 2 3 4 5 6 7 8 9 10 11 12 13 14 15 16 17 18 19 20 21 22 23 24 25 26 27 28 29 30 31 32 33 34 35 36 37 38
319
FTUS46 KOTX 210540
TAFCOE
TAF
KCOE 210540Z 2106/2206 25007KT P6SM BKN015 OVC021
     FM211100 VRB04KT 6SM BR VCFG SCT001 SCT015 BKN250
     FM211700 VRB04KT 6SM -SNRA BR SCT007 BKN012 OVC018
     FM212200 29006KT 2SM -SN OVC010=

USA.gov is the U.S. government's official web portal to all federal, state and local government web resources and services.